createdAt,value
2023-04-23T00:02:12.209Z,100.00
2023-04-23T00:04:40.524Z,100.00
2023-04-23T00:07:09.318Z,100.00
2023-04-23T00:09:38.719Z,100.00
2023-04-23T00:12:07.913Z,100.00
2023-04-23T00:14:36.346Z,100.00
2023-04-23T00:17:04.289Z,100.00
2023-04-23T00:19:32.230Z,100.00
2023-04-23T00:22:00.173Z,100.00
2023-04-23T00:24:28.135Z,100.00
2023-04-23T00:26:57.422Z,100.00
2023-04-23T00:29:25.410Z,100.00
2023-04-23T00:31:53.349Z,100.00
2023-04-23T00:34:21.430Z,100.00
2023-04-23T00:36:49.361Z,100.00
2023-04-23T00:39:17.315Z,100.00
2023-04-23T00:41:45.303Z,100.00
2023-04-23T00:44:14.621Z,100.00
2023-04-23T00:46:42.556Z,100.00
2023-04-23T00:49:10.485Z,100.00
2023-04-23T00:51:38.387Z,100.00
2023-04-23T00:54:06.507Z,100.00
2023-04-23T00:56:34.481Z,100.00
2023-04-23T00:59:03.364Z,100.00
2023-04-23T01:01:33.419Z,100.00
2023-04-23T01:04:01.579Z,100.00
2023-04-23T01:06:31.772Z,100.00
2023-04-23T01:08:59.747Z,100.00
2023-04-23T01:11:27.665Z,100.00
2023-04-23T01:13:56.222Z,100.00
2023-04-23T01:16:24.214Z,100.00
2023-04-23T01:18:53.812Z,100.00
2023-04-23T01:21:21.958Z,100.00
2023-04-23T01:23:51.352Z,100.00
2023-04-23T01:26:19.694Z,100.00
2023-04-23T01:28:47.644Z,100.00
2023-04-23T01:31:15.762Z,100.00
2023-04-23T01:33:44.049Z,100.00
2023-04-23T01:36:11.956Z,100.00
2023-04-23T01:38:39.967Z,100.00
2023-04-23T01:41:09.325Z,100.00
2023-04-23T01:43:37.237Z,100.00
2023-04-23T01:46:05.470Z,100.00
2023-04-23T01:48:33.443Z,100.00
2023-04-23T01:51:01.470Z,100.00
2023-04-23T01:53:29.370Z,100.00
2023-04-23T01:55:57.447Z,100.00
2023-04-23T01:58:26.790Z,100.00
2023-04-23T02:00:54.739Z,100.00
2023-04-23T02:03:22.812Z,100.00
2023-04-23T02:05:50.903Z,100.00
2023-04-23T02:08:18.956Z,100.00
2023-04-23T02:10:46.955Z,100.00
2023-04-23T02:13:14.917Z,100.00
2023-04-23T02:15:44.353Z,100.00
2023-04-23T02:18:12.299Z,100.00
2023-04-23T02:20:41.432Z,100.00
2023-04-23T02:23:09.433Z,100.00
2023-04-23T02:25:38.554Z,100.00
2023-04-23T02:28:07.415Z,100.00
2023-04-23T02:30:35.469Z,100.00
2023-04-23T02:33:05.192Z,100.00
2023-04-23T02:35:33.162Z,100.00
2023-04-23T02:38:01.140Z,100.00
2023-04-23T02:40:29.263Z,100.00
2023-04-23T02:42:57.205Z,100.00
2023-04-23T02:45:25.303Z,100.00
2023-04-23T02:47:53.630Z,100.00
2023-04-23T02:50:23.203Z,100.00
2023-04-23T02:52:51.258Z,100.00
2023-04-23T02:55:19.266Z,100.00
2023-04-23T02:57:47.213Z,100.00
2023-04-23T03:00:17.103Z,100.00
2023-04-23T03:02:45.305Z,100.00
2023-04-23T03:05:13.413Z,100.00
2023-04-23T03:07:42.896Z,100.00
2023-04-23T03:10:11.165Z,100.00
2023-04-23T03:12:39.257Z,100.00
2023-04-23T03:15:08.297Z,100.00
2023-04-23T03:17:36.304Z,100.00
2023-04-23T03:20:04.385Z,100.00
2023-04-23T03:22:32.298Z,100.00
2023-04-23T03:25:01.656Z,100.00
2023-04-23T03:27:29.631Z,100.00
2023-04-23T03:29:57.586Z,100.00
2023-04-23T03:32:25.810Z,100.00
2023-04-23T03:34:53.779Z,100.00
2023-04-23T03:37:21.727Z,100.00
2023-04-23T03:39:49.710Z,100.00
2023-04-23T03:42:19.043Z,100.00
2023-04-23T03:44:46.938Z,100.00
2023-04-23T03:47:14.887Z,100.00
2023-04-23T03:49:42.833Z,100.00
2023-04-23T03:52:10.835Z,100.00
2023-04-23T03:54:38.852Z,100.00
2023-04-23T03:57:07.307Z,100.00
2023-04-23T03:59:36.868Z,100.00
2023-04-23T04:02:05.132Z,100.00
2023-04-23T04:04:33.626Z,100.00
2023-04-23T04:07:01.835Z,100.00
2023-04-23T04:09:29.856Z,100.00
2023-04-23T04:11:57.811Z,100.00
2023-04-23T04:14:25.745Z,100.00
2023-04-23T04:16:55.060Z,100.00
2023-04-23T04:19:22.996Z,100.00
2023-04-23T04:21:51.269Z,100.00
2023-04-23T04:24:19.320Z,100.00
2023-04-23T04:26:47.686Z,100.00
2023-04-23T04:29:15.888Z,100.00
2023-04-23T04:31:43.893Z,100.00
2023-04-23T04:34:14.891Z,100.00
2023-04-23T04:36:43.227Z,100.00
2023-04-23T04:39:11.288Z,100.00
2023-04-23T04:41:39.235Z,100.00
2023-04-23T04:44:07.351Z,100.00
2023-04-23T04:46:40.368Z,99.28
2023-04-23T04:49:09.324Z,80.56
2023-04-23T04:51:39.610Z,69.81
2023-04-23T04:54:07.752Z,66.04
2023-04-23T04:56:35.717Z,61.20
2023-04-23T04:59:04.070Z,60.93
2023-04-23T05:01:32.618Z,60.44
2023-04-23T05:04:00.877Z,59.52
2023-04-23T05:06:29.804Z,66.17
2023-04-23T05:08:59.092Z,74.91
2023-04-23T05:11:27.070Z,75.30
2023-04-23T05:13:55.049Z,79.11
2023-04-23T05:16:23.344Z,84.19
2023-04-23T05:18:52.162Z,94.42
2023-04-23T05:21:20.188Z,95.65
2023-04-23T05:23:48.587Z,100.00
2023-04-23T05:26:18.276Z,100.00
2023-04-23T05:28:46.284Z,100.00
2023-04-23T05:31:14.332Z,100.00
2023-04-23T05:33:49.730Z,100.00
2023-04-23T05:36:18.903Z,99.24
2023-04-23T05:38:46.844Z,100.00
2023-04-23T05:41:14.793Z,100.00
2023-04-23T05:43:44.332Z,100.00
2023-04-23T05:46:12.382Z,100.00
2023-04-23T05:48:40.383Z,100.00
2023-04-23T05:51:08.372Z,100.00
2023-04-23T05:53:36.543Z,100.00
2023-04-23T05:56:04.627Z,100.00
2023-04-23T05:58:32.590Z,100.00
2023-04-23T06:01:01.969Z,100.00
2023-04-23T06:03:30.138Z,100.00
2023-04-23T06:05:58.390Z,100.00
2023-04-23T06:08:26.484Z,98.85
2023-04-23T06:10:55.920Z,96.45
2023-04-23T06:13:23.887Z,92.53
2023-04-23T06:15:51.900Z,85.34
2023-04-23T06:18:21.254Z,81.60
2023-04-23T06:20:51.575Z,79.27
2023-04-23T06:23:19.630Z,78.64
2023-04-23T06:25:47.595Z,77.36
2023-04-23T06:28:16.204Z,76.07
2023-04-23T06:30:44.192Z,74.67
2023-04-23T06:33:12.553Z,75.02
2023-04-23T06:35:41.858Z,72.62
2023-04-23T06:38:09.821Z,72.48
2023-04-23T06:40:37.823Z,67.62
2023-04-23T06:43:06.323Z,67.20
2023-04-23T06:45:34.279Z,63.88
2023-04-23T06:48:02.253Z,65.86
2023-04-23T06:50:31.155Z,65.11
2023-04-23T06:53:00.443Z,63.96
2023-04-23T06:55:29.165Z,58.78
2023-04-23T06:57:57.294Z,56.06
2023-04-23T07:00:25.293Z,52.40
2023-04-23T07:02:54.525Z,51.47
2023-04-23T07:05:22.636Z,47.12
2023-04-23T07:07:50.598Z,46.37
2023-04-23T07:10:20.019Z,48.25
2023-04-23T07:12:47.954Z,51.61
2023-04-23T07:15:15.930Z,53.32
2023-04-23T07:17:43.927Z,49.81
2023-04-23T07:20:12.574Z,45.17
2023-04-23T07:22:40.626Z,44.21
2023-04-23T07:25:09.768Z,45.94
2023-04-23T07:27:39.043Z,45.36
2023-04-23T07:30:10.195Z,46.64
2023-04-23T07:32:38.381Z,47.75
2023-04-23T07:35:07.209Z,48.64
2023-04-23T07:37:35.148Z,50.73
2023-04-23T07:40:03.117Z,49.24
2023-04-23T07:42:31.030Z,50.96
2023-04-23T07:45:00.378Z,48.67
2023-04-23T07:47:28.405Z,47.53
2023-04-23T07:49:56.411Z,47.56
2023-04-23T07:52:24.339Z,47.52
2023-04-23T07:54:52.302Z,47.14
2023-04-23T07:57:20.355Z,49.80
2023-04-23T07:59:48.322Z,51.35
2023-04-23T08:02:18.606Z,52.73
2023-04-23T08:04:46.972Z,52.94
2023-04-23T08:07:15.071Z,54.47
2023-04-23T08:09:43.628Z,54.67
2023-04-23T08:12:11.961Z,54.24
2023-04-23T08:14:39.909Z,56.65
2023-04-23T08:17:07.881Z,57.60
2023-04-23T08:19:37.263Z,55.15
2023-04-23T08:22:05.856Z,53.54
2023-04-23T08:24:33.872Z,55.48
2023-04-23T08:27:01.838Z,54.90
2023-04-23T08:29:29.840Z,49.96
2023-04-23T08:31:57.886Z,51.99
2023-04-23T08:34:26.144Z,51.56
2023-04-23T08:36:55.481Z,52.72
2023-04-23T08:39:23.457Z,55.27
2023-04-23T08:41:55.258Z,56.63
2023-04-23T08:44:24.186Z,53.11
2023-04-23T08:46:52.279Z,50.33
2023-04-23T08:49:20.390Z,51.60
2023-04-23T08:51:50.522Z,52.03
2023-04-23T08:54:27.955Z,49.60
2023-04-23T08:56:57.556Z,43.04
2023-04-23T08:59:25.780Z,36.97
2023-04-23T09:01:53.934Z,44.01
2023-04-23T09:04:22.248Z,42.64
2023-04-23T09:06:50.217Z,44.54
2023-04-23T09:09:18.580Z,40.50
2023-04-23T09:11:47.906Z,42.20
2023-04-23T09:14:15.871Z,41.22
2023-04-23T09:16:44.543Z,42.02
2023-04-23T09:19:12.588Z,38.50
2023-04-23T09:21:40.721Z,40.70
2023-04-23T09:24:12.168Z,42.26
2023-04-23T09:26:47.248Z,40.87
2023-04-23T09:29:17.590Z,34.47
2023-04-23T09:31:45.912Z,36.23
2023-04-23T09:34:13.851Z,37.08
2023-04-23T09:36:41.827Z,36.51
2023-04-23T09:39:13.723Z,37.00
2023-04-23T09:41:41.655Z,37.44
2023-04-23T09:44:12.420Z,39.01
2023-04-23T09:46:41.667Z,41.80
2023-04-23T09:49:10.660Z,36.67
2023-04-23T09:51:39.475Z,38.90
2023-04-23T09:54:12.304Z,36.45
2023-04-23T09:56:40.437Z,39.17
2023-04-23T09:59:32.057Z,40.02
2023-04-23T10:02:04.794Z,39.39
2023-04-23T10:04:32.897Z,36.09
2023-04-23T10:09:35.509Z,38.11
2023-04-23T10:12:04.018Z,37.66
2023-04-23T10:14:33.331Z,36.77
2023-04-23T10:17:02.024Z,34.93
2023-04-23T10:19:30.127Z,34.20
2023-04-23T10:22:12.084Z,32.82
2023-04-23T10:24:48.699Z,35.98
2023-04-23T10:27:30.847Z,34.12
2023-04-23T10:30:06.923Z,34.60
2023-04-23T10:32:35.000Z,33.82
2023-04-23T10:35:02.994Z,32.73
2023-04-23T10:37:31.025Z,33.79
2023-04-23T10:40:02.632Z,32.86
2023-04-23T10:42:30.957Z,31.90
2023-04-23T10:45:04.713Z,31.73
2023-04-23T10:47:39.642Z,32.98
2023-04-23T10:50:20.197Z,32.06
2023-04-23T10:52:51.538Z,31.67
2023-04-23T10:55:20.394Z,32.72
2023-04-23T10:58:03.235Z,33.20
2023-04-23T11:00:32.179Z,33.27
2023-04-23T11:03:01.574Z,33.53
2023-04-23T11:05:29.656Z,33.11
2023-04-23T11:08:18.105Z,33.45
2023-04-23T11:10:56.856Z,30.61
2023-04-23T11:13:26.073Z,29.72
2023-04-23T11:16:19.398Z,30.54
2023-04-23T11:18:59.374Z,28.60
2023-04-23T11:22:01.684Z,29.78
2023-04-23T11:24:30.574Z,29.74
2023-04-23T11:26:58.610Z,28.94
2023-04-23T11:29:27.223Z,28.90
2023-04-23T11:34:27.885Z,30.15
2023-04-23T11:36:56.316Z,29.62
2023-04-23T11:39:25.842Z,28.68
2023-04-23T11:41:54.285Z,29.35
2023-04-23T11:44:22.875Z,28.94
2023-04-23T11:46:50.933Z,28.55
2023-04-23T11:49:18.889Z,27.83
2023-04-23T11:51:48.792Z,27.41
2023-04-23T11:54:16.790Z,27.14
2023-04-23T11:56:44.925Z,26.29
2023-04-23T11:59:12.845Z,25.34
2023-04-23T12:01:44.382Z,24.12
2023-04-23T12:04:16.466Z,23.65
2023-04-23T12:06:45.713Z,24.61
2023-04-23T12:09:15.966Z,24.99
2023-04-23T12:11:44.389Z,22.30
2023-04-23T12:14:12.836Z,22.77
2023-04-23T12:16:41.470Z,22.49
2023-04-23T12:19:09.882Z,23.60
2023-04-23T12:21:49.167Z,24.87
2023-04-23T12:24:18.503Z,25.80
2023-04-23T12:26:46.487Z,27.00
2023-04-23T12:29:14.456Z,27.36
2023-04-23T12:31:44.200Z,25.71
2023-04-23T12:34:13.514Z,24.38
2023-04-23T12:36:41.496Z,24.71
2023-04-23T12:39:24.497Z,25.71
2023-04-23T12:41:52.786Z,26.89
2023-04-23T12:44:21.148Z,26.96
2023-04-23T12:46:51.754Z,29.40
2023-04-23T12:49:19.792Z,29.56
2023-04-23T12:51:47.762Z,30.91
2023-04-23T12:54:15.730Z,32.19
2023-04-23T12:56:45.075Z,34.03
2023-04-23T12:59:13.001Z,33.77
2023-04-23T13:01:41.046Z,32.29
2023-04-23T13:04:09.072Z,31.63
2023-04-23T13:06:37.276Z,31.77
2023-04-23T13:09:05.512Z,32.75
2023-04-23T13:11:33.458Z,34.19
2023-04-23T13:14:02.774Z,34.08
2023-04-23T13:16:31.044Z,32.17
2023-04-23T13:18:59.042Z,32.79
2023-04-23T13:21:27.053Z,33.84
2023-04-23T13:23:54.966Z,35.25
2023-04-23T13:26:22.957Z,36.29
2023-04-23T13:28:50.917Z,36.41
2023-04-23T13:31:20.280Z,37.02
2023-04-23T13:33:48.268Z,36.93
2023-04-23T13:36:16.218Z,36.48
2023-04-23T13:38:44.139Z,36.23
2023-04-23T13:41:12.092Z,36.75
2023-04-23T13:43:40.026Z,36.62
2023-04-23T13:46:08.065Z,36.34
2023-04-23T13:48:37.381Z,35.61
2023-04-23T13:51:13.581Z,35.30
2023-04-23T13:53:49.633Z,35.13
2023-04-23T13:56:17.544Z,35.01
2023-04-23T13:58:47.339Z,34.74
2023-04-23T14:01:15.831Z,34.36
2023-04-23T14:03:45.176Z,34.73
2023-04-23T14:06:13.129Z,33.12
2023-04-23T14:08:41.350Z,33.76
2023-04-23T14:11:09.265Z,33.17
2023-04-23T14:13:37.399Z,32.55
2023-04-23T14:16:05.508Z,31.93
2023-04-23T14:18:33.625Z,31.66
2023-04-23T14:21:02.933Z,32.83
2023-04-23T14:23:52.703Z,30.00
2023-04-23T14:26:40.832Z,30.67
2023-04-23T14:29:19.823Z,31.91
2023-04-23T14:31:47.761Z,30.71
2023-04-23T14:34:16.421Z,32.76
2023-04-23T14:36:49.173Z,31.86
2023-04-23T14:39:17.442Z,33.62
2023-04-23T14:41:45.427Z,32.38
2023-04-23T14:44:13.347Z,34.05
2023-04-23T14:46:41.380Z,33.51
2023-04-23T14:49:09.413Z,33.18
2023-04-23T14:51:37.472Z,33.13
2023-04-23T14:54:07.267Z,33.01
2023-04-23T14:56:35.197Z,33.24
2023-04-23T14:59:03.321Z,33.69
2023-04-23T15:01:31.374Z,34.09
2023-04-23T15:03:59.586Z,35.85
2023-04-23T15:06:27.610Z,35.82
2023-04-23T15:08:55.610Z,36.90
2023-04-23T15:11:24.960Z,36.21
2023-04-23T15:13:57.759Z,37.04
2023-04-23T15:16:46.633Z,36.82
2023-04-23T15:19:17.894Z,37.23
2023-04-23T15:21:46.187Z,37.80
2023-04-23T15:24:14.120Z,38.38
2023-04-23T15:26:43.540Z,39.26
2023-04-23T15:29:11.559Z,40.93
2023-04-23T15:31:39.592Z,40.64
2023-04-23T15:34:09.204Z,40.61
2023-04-23T15:36:37.904Z,41.11
2023-04-23T15:39:06.417Z,40.93
2023-04-23T15:41:34.402Z,42.02
2023-04-23T15:44:04.280Z,42.37
2023-04-23T15:46:32.207Z,42.02
2023-04-23T15:49:00.263Z,42.04
2023-04-23T15:51:28.218Z,42.57
2023-04-23T15:53:56.154Z,42.32
2023-04-23T15:56:24.364Z,43.20
2023-04-23T15:58:52.336Z,43.63
2023-04-23T16:01:21.661Z,44.41
2023-04-23T16:04:07.974Z,44.82
2023-04-23T16:06:37.153Z,44.71
2023-04-23T16:09:07.304Z,45.30
2023-04-23T16:11:35.823Z,45.47
2023-04-23T16:14:03.746Z,45.83
2023-04-23T16:16:33.134Z,46.52
2023-04-23T16:19:02.025Z,46.78
2023-04-23T16:21:29.993Z,47.16
2023-04-23T16:23:57.976Z,47.78
2023-04-23T16:26:25.929Z,47.77
2023-04-23T16:29:05.402Z,48.02
2023-04-23T16:31:43.203Z,48.39
2023-04-23T16:34:11.113Z,48.52
2023-04-23T16:36:39.082Z,48.22
2023-04-23T16:39:07.093Z,49.14
2023-04-23T16:41:35.012Z,49.21
2023-04-23T16:44:02.947Z,49.71
2023-04-23T16:46:31.865Z,51.80
2023-04-23T16:49:01.457Z,51.32
2023-04-23T16:51:29.691Z,50.88
2023-04-23T16:53:57.942Z,51.41
2023-04-23T16:56:25.864Z,52.34
2023-04-23T16:58:53.830Z,52.93
2023-04-23T17:01:21.850Z,52.52
2023-04-23T17:03:49.912Z,54.02
2023-04-23T17:06:22.170Z,53.58
2023-04-23T17:08:50.108Z,54.14
2023-04-23T17:11:18.010Z,55.23
2023-04-23T17:13:46.034Z,55.04
2023-04-23T17:16:14.087Z,54.86
2023-04-23T17:18:42.084Z,55.63
2023-04-23T17:21:10.130Z,56.71
2023-04-23T17:23:39.423Z,57.14
2023-04-23T17:26:07.405Z,58.48
2023-04-23T17:28:35.804Z,59.28
2023-04-23T17:31:04.033Z,60.89
2023-04-23T17:33:32.473Z,62.80
2023-04-23T17:36:00.409Z,65.27
2023-04-23T17:38:29.056Z,68.10
2023-04-23T17:40:58.760Z,72.38
2023-04-23T17:43:27.382Z,72.06
2023-04-23T17:45:55.327Z,70.57
2023-04-23T17:48:23.458Z,66.22
2023-04-23T17:50:51.398Z,65.53
2023-04-23T17:53:19.539Z,64.82
2023-04-23T17:55:47.784Z,64.17
2023-04-23T17:58:17.142Z,63.61
2023-04-23T18:00:45.095Z,63.98
2023-04-23T18:03:16.661Z,63.68
2023-04-23T18:05:45.087Z,64.31
2023-04-23T18:08:13.021Z,64.36
2023-04-23T18:10:41.070Z,64.77
2023-04-23T18:13:11.588Z,65.43
2023-04-23T18:15:41.762Z,66.19
2023-04-23T18:18:09.867Z,67.00
2023-04-23T18:20:39.106Z,67.20
2023-04-23T18:23:08.052Z,66.42
2023-04-23T18:25:36.156Z,67.03
2023-04-23T18:28:04.599Z,65.37
2023-04-23T18:30:32.536Z,66.02
2023-04-23T18:33:04.099Z,65.57
2023-04-23T18:35:32.227Z,66.32
2023-04-23T18:38:02.629Z,65.54
2023-04-23T18:40:30.610Z,65.88
2023-04-23T18:42:58.576Z,64.76
2023-04-23T18:45:26.494Z,65.40
2023-04-23T18:47:58.323Z,65.09
2023-04-23T18:50:39.010Z,65.31
2023-04-23T18:53:06.931Z,63.80
2023-04-23T18:55:34.927Z,62.37
2023-04-23T18:58:02.881Z,63.06
2023-04-23T19:00:30.867Z,63.08
2023-04-23T19:02:59.261Z,62.33
2023-04-23T19:05:27.433Z,62.46
2023-04-23T19:07:57.239Z,63.47
2023-04-23T19:10:25.202Z,62.70
2023-04-23T19:12:53.168Z,62.82
2023-04-23T19:15:21.194Z,63.97
2023-04-23T19:17:49.165Z,64.19
2023-04-23T19:20:18.689Z,64.61
2023-04-23T19:22:46.666Z,64.26
2023-04-23T19:25:16.045Z,63.71
2023-04-23T19:27:43.978Z,64.48
2023-04-23T19:30:12.752Z,64.58
2023-04-23T19:32:40.791Z,65.48
2023-04-23T19:35:09.233Z,65.02
2023-04-23T19:37:37.227Z,64.83
2023-04-23T19:40:05.849Z,65.56
2023-04-23T19:42:35.150Z,67.16
2023-04-23T19:45:03.268Z,65.73
2023-04-23T19:47:32.558Z,67.32
2023-04-23T19:50:00.620Z,67.11
2023-04-23T19:52:28.776Z,67.13
2023-04-23T19:54:56.746Z,67.25
2023-04-23T19:57:24.716Z,68.50
2023-04-23T19:59:54.120Z,69.13
2023-04-23T20:02:22.140Z,69.95
2023-04-23T20:04:50.097Z,70.74
2023-04-23T20:07:18.077Z,71.96
2023-04-23T20:09:46.037Z,73.36
2023-04-23T20:12:14.218Z,74.50
2023-04-23T20:14:42.554Z,75.42
2023-04-23T20:17:11.837Z,74.59
2023-04-23T20:19:39.994Z,75.26
2023-04-23T20:22:08.031Z,74.37
2023-04-23T20:24:38.157Z,74.58
2023-04-23T20:27:07.046Z,75.82
2023-04-23T20:29:35.074Z,76.71
2023-04-23T20:32:03.065Z,77.66
2023-04-23T20:34:32.339Z,79.86
2023-04-23T20:37:00.233Z,81.20
2023-04-23T20:39:28.179Z,84.41
2023-04-23T20:41:57.859Z,85.66
2023-04-23T20:44:25.987Z,84.92
2023-04-23T20:46:53.944Z,87.97
2023-04-23T20:49:22.423Z,89.21
2023-04-23T20:51:51.782Z,88.19
2023-04-23T20:54:19.726Z,89.40
2023-04-23T20:56:47.702Z,90.63
2023-04-23T20:59:15.962Z,92.68
2023-04-23T21:01:44.001Z,94.77
2023-04-23T21:04:12.340Z,95.55
2023-04-23T21:06:40.512Z,97.19
2023-04-23T21:09:10.539Z,96.20
2023-04-23T21:11:38.488Z,99.27
2023-04-23T21:14:08.811Z,97.94
2023-04-23T21:16:36.981Z,96.80
2023-04-23T21:19:05.108Z,98.06
2023-04-23T21:21:33.109Z,98.26
2023-04-23T21:24:01.270Z,99.53
2023-04-23T21:26:30.730Z,99.77
2023-04-23T21:28:58.695Z,100.00
2023-04-23T21:31:35.129Z,100.00
2023-04-23T21:34:03.146Z,100.00
2023-04-23T21:36:31.586Z,100.00
2023-04-23T21:38:59.869Z,100.00
2023-04-23T21:41:27.781Z,100.00
2023-04-23T21:43:57.097Z,100.00
2023-04-23T21:46:25.198Z,100.00
2023-04-23T21:48:53.656Z,100.00
2023-04-23T21:51:22.530Z,100.00
2023-04-23T21:53:50.495Z,100.00
2023-04-23T21:56:18.600Z,100.00
2023-04-23T21:58:46.695Z,100.00
2023-04-23T22:01:17.415Z,100.00
2023-04-23T22:03:47.013Z,98.24
2023-04-23T22:06:15.659Z,96.54
2023-04-23T22:08:44.851Z,93.12
2023-04-23T22:11:12.891Z,90.02
2023-04-23T22:13:40.821Z,86.89
2023-04-23T22:16:24.561Z,85.13
2023-04-23T22:18:57.688Z,84.54
2023-04-23T22:21:25.719Z,82.68
2023-04-23T22:23:53.700Z,81.15
2023-04-23T22:26:21.724Z,78.32
2023-04-23T22:28:49.638Z,79.08
2023-04-23T22:31:18.473Z,79.69
2023-04-23T22:33:46.495Z,78.07
2023-04-23T22:36:16.947Z,81.28
2023-04-23T22:38:44.918Z,82.32
2023-04-23T22:41:13.270Z,84.57
2023-04-23T22:43:41.184Z,87.35
2023-04-23T22:46:09.211Z,89.42
2023-04-23T22:48:43.970Z,88.44
2023-04-23T22:51:11.962Z,88.98
2023-04-23T22:53:41.258Z,90.56
2023-04-23T22:56:09.176Z,93.30
2023-04-23T22:58:37.675Z,97.17
2023-04-23T23:01:06.014Z,100.00
2023-04-23T23:03:34.177Z,100.00
2023-04-23T23:06:02.243Z,100.00
2023-04-23T23:08:30.187Z,100.00
2023-04-23T23:10:59.477Z,100.00
2023-04-23T23:13:27.433Z,100.00
2023-04-23T23:15:55.710Z,100.00
2023-04-23T23:18:23.692Z,100.00
2023-04-23T23:20:51.632Z,100.00
2023-04-23T23:23:19.522Z,100.00
2023-04-23T23:25:47.442Z,100.00
2023-04-23T23:28:16.742Z,100.00
2023-04-23T23:30:44.692Z,100.00
2023-04-23T23:33:12.657Z,100.00
2023-04-23T23:35:42.552Z,100.00
2023-04-23T23:38:12.010Z,100.00
2023-04-23T23:40:40.029Z,100.00
2023-04-23T23:43:07.947Z,100.00
2023-04-23T23:45:37.190Z,100.00
2023-04-23T23:48:05.719Z,100.00
2023-04-23T23:50:33.779Z,100.00
2023-04-23T23:53:01.767Z,100.00
2023-04-23T23:55:29.844Z,100.00
2023-04-23T23:57:57.780Z,100.00
